sensor_id;sensor_type;location;lat;lon;timestamp;P1;durP1;ratioP1;P2;durP2;ratioP2
43807;SDS011;29438;50.664;10.098;2023-01-01T00:01:24;3.65;;;0.43;;
43807;SDS011;29438;50.664;10.098;2023-01-01T00:03:51;2.22;;;0.80;;
43807;SDS011;29438;50.664;10.098;2023-01-01T00:06:17;4.15;;;0.68;;
43807;SDS011;29438;50.664;10.098;2023-01-01T00:08:43;2.05;;;0.80;;
43807;SDS011;29438;50.664;10.098;2023-01-01T00:11:09;2.42;;;0.65;;
43807;SDS011;29438;50.664;10.098;2023-01-01T00:13:36;2.60;;;0.80;;
43807;SDS011;29438;50.664;10.098;2023-01-01T00:16:06;1.92;;;0.57;;
43807;SDS011;29438;50.664;10.098;2023-01-01T00:18:33;2.05;;;0.65;;
43807;SDS011;29438;50.664;10.098;2023-01-01T00:21:05;4.93;;;1.40;;
43807;SDS011;29438;50.664;10.098;2023-01-01T00:23:34;7.43;;;3.42;;
43807;SDS011;29438;50.664;10.098;2023-01-01T00:26:00;2.63;;;0.90;;
43807;SDS011;29438;50.664;10.098;2023-01-01T00:28:26;3.90;;;1.00;;
43807;SDS011;29438;50.664;10.098;2023-01-01T00:30:52;2.90;;;0.80;;
43807;SDS011;29438;50.664;10.098;2023-01-01T00:33:17;2.78;;;0.82;;
43807;SDS011;29438;50.664;10.098;2023-01-01T00:35:43;3.72;;;1.10;;
43807;SDS011;29438;50.664;10.098;2023-01-01T00:38:09;3.95;;;1.30;;
43807;SDS011;29438;50.664;10.098;2023-01-01T00:40:34;4.32;;;0.77;;
43807;SDS011;29438;50.664;10.098;2023-01-01T00:43:00;5.50;;;0.95;;
43807;SDS011;29438;50.664;10.098;2023-01-01T00:45:25;3.20;;;0.90;;
43807;SDS011;29438;50.664;10.098;2023-01-01T00:47:51;5.32;;;0.93;;
43807;SDS011;29438;50.664;10.098;2023-01-01T00:50:18;3.53;;;1.02;;
43807;SDS011;29438;50.664;10.098;2023-01-01T00:52:44;3.13;;;1.08;;
43807;SDS011;29438;50.664;10.098;2023-01-01T00:55:10;3.10;;;1.05;;
43807;SDS011;29438;50.664;10.098;2023-01-01T00:57:36;3.33;;;1.13;;
43807;SDS011;29438;50.664;10.098;2023-01-01T01:00:02;3.10;;;1.08;;
43807;SDS011;29438;50.664;10.098;2023-01-01T01:02:29;3.28;;;1.00;;
43807;SDS011;29438;50.664;10.098;2023-01-01T01:04:55;3.45;;;1.20;;
43807;SDS011;29438;50.664;10.098;2023-01-01T01:07:20;5.47;;;1.30;;
43807;SDS011;29438;50.664;10.098;2023-01-01T01:09:46;3.22;;;1.30;;
43807;SDS011;29438;50.664;10.098;2023-01-01T01:12:11;3.88;;;1.08;;
43807;SDS011;29438;50.664;10.098;2023-01-01T01:14:37;4.78;;;1.00;;
43807;SDS011;29438;50.664;10.098;2023-01-01T01:17:02;2.75;;;1.00;;
43807;SDS011;29438;50.664;10.098;2023-01-01T01:19:28;4.63;;;1.02;;
43807;SDS011;29438;50.664;10.098;2023-01-01T01:21:53;2.88;;;0.88;;
43807;SDS011;29438;50.664;10.098;2023-01-01T01:24:19;4.22;;;1.10;;
43807;SDS011;29438;50.664;10.098;2023-01-01T01:26:44;4.95;;;1.17;;
43807;SDS011;29438;50.664;10.098;2023-01-01T01:29:10;5.70;;;1.08;;
43807;SDS011;29438;50.664;10.098;2023-01-01T01:31:35;3.08;;;0.90;;
43807;SDS011;29438;50.664;10.098;2023-01-01T01:34:01;3.95;;;0.93;;
43807;SDS011;29438;50.664;10.098;2023-01-01T01:36:27;2.80;;;0.85;;
43807;SDS011;29438;50.664;10.098;2023-01-01T01:38:53;3.53;;;0.82;;
43807;SDS011;29438;50.664;10.098;2023-01-01T01:41:20;3.30;;;1.00;;
43807;SDS011;29438;50.664;10.098;2023-01-01T01:44:01;3.55;;;1.02;;
43807;SDS011;29438;50.664;10.098;2023-01-01T01:46:32;3.75;;;1.10;;
43807;SDS011;29438;50.664;10.098;2023-01-01T01:49:08;3.67;;;0.90;;
43807;SDS011;29438;50.664;10.098;2023-01-01T01:51:40;3.33;;;0.73;;
43807;SDS011;29438;50.664;10.098;2023-01-01T01:54:10;2.70;;;0.60;;
43807;SDS011;29438;50.664;10.098;2023-01-01T01:59:19;2.15;;;0.73;;
43807;SDS011;29438;50.664;10.098;2023-01-01T02:01:46;2.67;;;0.88;;
43807;SDS011;29438;50.664;10.098;2023-01-01T02:04:11;3.67;;;1.23;;
43807;SDS011;29438;50.664;10.098;2023-01-01T02:06:38;2.75;;;0.82;;
43807;SDS011;29438;50.664;10.098;2023-01-01T02:09:05;4.35;;;1.10;;
43807;SDS011;29438;50.664;10.098;2023-01-01T02:11:32;3.00;;;1.00;;
43807;SDS011;29438;50.664;10.098;2023-01-01T02:13:57;3.70;;;1.20;;
43807;SDS011;29438;50.664;10.098;2023-01-01T02:16:38;3.78;;;1.20;;
43807;SDS011;29438;50.664;10.098;2023-01-01T02:19:23;3.95;;;1.70;;
43807;SDS011;29438;50.664;10.098;2023-01-01T02:22:15;4.05;;;1.55;;
43807;SDS011;29438;50.664;10.098;2023-01-01T02:25:08;3.75;;;1.50;;
43807;SDS011;29438;50.664;10.098;2023-01-01T02:28:07;4.05;;;1.80;;
43807;SDS011;29438;50.664;10.098;2023-01-01T02:30:40;4.43;;;2.00;;
43807;SDS011;29438;50.664;10.098;2023-01-01T02:33:13;4.32;;;1.58;;
43807;SDS011;29438;50.664;10.098;2023-01-01T02:35:44;5.55;;;1.92;;
43807;SDS011;29438;50.664;10.098;2023-01-01T02:38:17;4.72;;;1.85;;
43807;SDS011;29438;50.664;10.098;2023-01-01T02:40:48;5.05;;;1.77;;
43807;SDS011;29438;50.664;10.098;2023-01-01T02:43:16;5.05;;;1.60;;
43807;SDS011;29438;50.664;10.098;2023-01-01T02:45:42;3.75;;;1.55;;
43807;SDS011;29438;50.664;10.098;2023-01-01T02:51:02;4.53;;;1.50;;
43807;SDS011;29438;50.664;10.098;2023-01-01T02:53:36;3.67;;;1.55;;
43807;SDS011;29438;50.664;10.098;2023-01-01T02:56:07;3.15;;;1.40;;
43807;SDS011;29438;50.664;10.098;2023-01-01T02:58:41;4.25;;;1.77;;
43807;SDS011;29438;50.664;10.098;2023-01-01T03:01:45;5.35;;;1.88;;
43807;SDS011;29438;50.664;10.098;2023-01-01T03:04:24;3.58;;;1.50;;
43807;SDS011;29438;50.664;10.098;2023-01-01T03:07:06;4.35;;;1.80;;
43807;SDS011;29438;50.664;10.098;2023-01-01T03:09:51;4.00;;;1.45;;
43807;SDS011;29438;50.664;10.098;2023-01-01T03:12:38;3.40;;;1.48;;
43807;SDS011;29438;50.664;10.098;2023-01-01T03:17:50;4.10;;;1.42;;
43807;SDS011;29438;50.664;10.098;2023-01-01T03:20:32;5.70;;;1.77;;
43807;SDS011;29438;50.664;10.098;2023-01-01T03:23:05;4.10;;;1.35;;
43807;SDS011;29438;50.664;10.098;2023-01-01T03:25:36;3.63;;;1.50;;
43807;SDS011;29438;50.664;10.098;2023-01-01T03:28:09;6.00;;;1.80;;
43807;SDS011;29438;50.664;10.098;2023-01-01T03:33:10;5.03;;;1.70;;
43807;SDS011;29438;50.664;10.098;2023-01-01T03:38:29;4.35;;;1.70;;
43807;SDS011;29438;50.664;10.098;2023-01-01T03:41:11;4.65;;;1.45;;
43807;SDS011;29438;50.664;10.098;2023-01-01T03:43:43;3.60;;;1.80;;
43807;SDS011;29438;50.664;10.098;2023-01-01T03:46:18;4.82;;;1.48;;
43807;SDS011;29438;50.664;10.098;2023-01-01T03:48:48;3.90;;;1.90;;
43807;SDS011;29438;50.664;10.098;2023-01-01T03:52:07;5.68;;;1.50;;
43807;SDS011;29438;50.664;10.098;2023-01-01T03:54:41;4.50;;;1.63;;
43807;SDS011;29438;50.664;10.098;2023-01-01T03:57:15;5.88;;;1.92;;
43807;SDS011;29438;50.664;10.098;2023-01-01T04:00:06;4.65;;;1.48;;
43807;SDS011;29438;50.664;10.098;2023-01-01T04:02:51;4.13;;;1.45;;
43807;SDS011;29438;50.664;10.098;2023-01-01T04:05:21;3.70;;;1.52;;
43807;SDS011;29438;50.664;10.098;2023-01-01T04:07:48;3.45;;;1.30;;
43807;SDS011;29438;50.664;10.098;2023-01-01T04:10:15;3.45;;;1.45;;
43807;SDS011;29438;50.664;10.098;2023-01-01T04:12:42;4.03;;;1.45;;
43807;SDS011;29438;50.664;10.098;2023-01-01T04:15:09;3.55;;;1.30;;
43807;SDS011;29438;50.664;10.098;2023-01-01T04:17:35;4.28;;;1.17;;
43807;SDS011;29438;50.664;10.098;2023-01-01T04:20:01;3.08;;;1.10;;
43807;SDS011;29438;50.664;10.098;2023-01-01T04:22:26;4.00;;;1.25;;
43807;SDS011;29438;50.664;10.098;2023-01-01T04:24:52;2.90;;;1.00;;
43807;SDS011;29438;50.664;10.098;2023-01-01T04:27:17;3.60;;;1.00;;
43807;SDS011;29438;50.664;10.098;2023-01-01T04:29:43;3.35;;;1.10;;
43807;SDS011;29438;50.664;10.098;2023-01-01T04:32:08;2.72;;;1.10;;
43807;SDS011;29438;50.664;10.098;2023-01-01T04:34:33;3.22;;;1.20;;
43807;SDS011;29438;50.664;10.098;2023-01-01T04:36:59;3.10;;;0.95;;
43807;SDS011;29438;50.664;10.098;2023-01-01T04:39:24;3.40;;;1.10;;
43807;SDS011;29438;50.664;10.098;2023-01-01T04:41:50;3.20;;;1.13;;
43807;SDS011;29438;50.664;10.098;2023-01-01T04:44:15;2.40;;;1.02;;
43807;SDS011;29438;50.664;10.098;2023-01-01T04:46:41;3.13;;;1.00;;
43807;SDS011;29438;50.664;10.098;2023-01-01T04:49:06;4.13;;;1.00;;
43807;SDS011;29438;50.664;10.098;2023-01-01T04:51:32;3.63;;;1.23;;
43807;SDS011;29438;50.664;10.098;2023-01-01T04:53:58;3.17;;;0.98;;
43807;SDS011;29438;50.664;10.098;2023-01-01T04:56:24;2.45;;;1.08;;
43807;SDS011;29438;50.664;10.098;2023-01-01T04:58:49;4.10;;;0.90;;
43807;SDS011;29438;50.664;10.098;2023-01-01T05:01:19;3.00;;;0.90;;
43807;SDS011;29438;50.664;10.098;2023-01-01T05:03:46;2.90;;;1.20;;
43807;SDS011;29438;50.664;10.098;2023-01-01T05:06:12;3.15;;;0.95;;
43807;SDS011;29438;50.664;10.098;2023-01-01T05:08:39;2.97;;;1.10;;
43807;SDS011;29438;50.664;10.098;2023-01-01T05:11:06;3.53;;;0.90;;
43807;SDS011;29438;50.664;10.098;2023-01-01T05:13:47;3.85;;;0.82;;
43807;SDS011;29438;50.664;10.098;2023-01-01T05:16:15;3.92;;;0.95;;
43807;SDS011;29438;50.664;10.098;2023-01-01T05:18:42;4.50;;;0.93;;
43807;SDS011;29438;50.664;10.098;2023-01-01T05:21:09;4.68;;;0.95;;
43807;SDS011;29438;50.664;10.098;2023-01-01T05:23:37;2.58;;;1.02;;
43807;SDS011;29438;50.664;10.098;2023-01-01T05:28:37;5.45;;;0.90;;
43807;SDS011;29438;50.664;10.098;2023-01-01T05:31:07;2.20;;;0.95;;
43807;SDS011;29438;50.664;10.098;2023-01-01T05:33:35;2.50;;;1.00;;
43807;SDS011;29438;50.664;10.098;2023-01-01T05:36:01;3.00;;;1.10;;
43807;SDS011;29438;50.664;10.098;2023-01-01T05:38:27;5.22;;;0.98;;
43807;SDS011;29438;50.664;10.098;2023-01-01T05:40:53;2.75;;;0.90;;
43807;SDS011;29438;50.664;10.098;2023-01-01T05:43:19;2.78;;;1.00;;
43807;SDS011;29438;50.664;10.098;2023-01-01T05:45:45;3.08;;;1.30;;
43807;SDS011;29438;50.664;10.098;2023-01-01T05:48:10;2.95;;;1.17;;
43807;SDS011;29438;50.664;10.098;2023-01-01T05:50:36;2.80;;;0.88;;
43807;SDS011;29438;50.664;10.098;2023-01-01T05:53:01;5.18;;;1.05;;
43807;SDS011;29438;50.664;10.098;2023-01-01T05:55:27;3.10;;;1.10;;
43807;SDS011;29438;50.664;10.098;2023-01-01T05:57:52;3.05;;;1.00;;
43807;SDS011;29438;50.664;10.098;2023-01-01T06:00:18;5.38;;;1.17;;
43807;SDS011;29438;50.664;10.098;2023-01-01T06:02:44;4.40;;;1.13;;
43807;SDS011;29438;50.664;10.098;2023-01-01T06:05:09;4.43;;;1.17;;
43807;SDS011;29438;50.664;10.098;2023-01-01T06:07:35;2.75;;;0.95;;
43807;SDS011;29438;50.664;10.098;2023-01-01T06:10:01;2.75;;;1.00;;
43807;SDS011;29438;50.664;10.098;2023-01-01T06:12:27;2.42;;;1.00;;
43807;SDS011;29438;50.664;10.098;2023-01-01T06:14:53;4.28;;;1.20;;
43807;SDS011;29438;50.664;10.098;2023-01-01T06:17:18;5.15;;;1.20;;
43807;SDS011;29438;50.664;10.098;2023-01-01T06:19:44;4.03;;;1.00;;
43807;SDS011;29438;50.664;10.098;2023-01-01T06:22:09;2.47;;;1.20;;
43807;SDS011;29438;50.664;10.098;2023-01-01T06:24:35;2.63;;;1.10;;
43807;SDS011;29438;50.664;10.098;2023-01-01T06:27:00;3.30;;;1.00;;
43807;SDS011;29438;50.664;10.098;2023-01-01T06:29:26;3.83;;;1.30;;
43807;SDS011;29438;50.664;10.098;2023-01-01T06:31:51;2.83;;;1.20;;
43807;SDS011;29438;50.664;10.098;2023-01-01T06:34:17;4.88;;;1.10;;
43807;SDS011;29438;50.664;10.098;2023-01-01T06:36:42;4.10;;;1.20;;
43807;SDS011;29438;50.664;10.098;2023-01-01T06:39:08;3.03;;;0.98;;
43807;SDS011;29438;50.664;10.098;2023-01-01T06:41:33;4.95;;;1.05;;
43807;SDS011;29438;50.664;10.098;2023-01-01T06:43:59;3.63;;;1.13;;
43807;SDS011;29438;50.664;10.098;2023-01-01T06:46:32;3.53;;;0.98;;
43807;SDS011;29438;50.664;10.098;2023-01-01T06:49:04;5.32;;;1.02;;
43807;SDS011;29438;50.664;10.098;2023-01-01T06:51:32;3.70;;;1.40;;
43807;SDS011;29438;50.664;10.098;2023-01-01T06:54:01;4.13;;;1.20;;
43807;SDS011;29438;50.664;10.098;2023-01-01T06:56:28;4.05;;;1.10;;
43807;SDS011;29438;50.664;10.098;2023-01-01T06:58:55;2.28;;;0.90;;
43807;SDS011;29438;50.664;10.098;2023-01-01T07:01:21;4.10;;;1.00;;
43807;SDS011;29438;50.664;10.098;2023-01-01T07:03:50;2.83;;;1.10;;
43807;SDS011;29438;50.664;10.098;2023-01-01T07:06:17;3.70;;;1.13;;
43807;SDS011;29438;50.664;10.098;2023-01-01T07:08:43;3.72;;;1.08;;
43807;SDS011;29438;50.664;10.098;2023-01-01T07:11:08;4.68;;;1.13;;
43807;SDS011;29438;50.664;10.098;2023-01-01T07:13:34;3.88;;;1.05;;
43807;SDS011;29438;50.664;10.098;2023-01-01T07:15:59;2.70;;;0.90;;
43807;SDS011;29438;50.664;10.098;2023-01-01T07:18:26;2.50;;;1.00;;
43807;SDS011;29438;50.664;10.098;2023-01-01T07:20:55;4.18;;;1.05;;
43807;SDS011;29438;50.664;10.098;2023-01-01T07:23:22;3.97;;;1.38;;
43807;SDS011;29438;50.664;10.098;2023-01-01T07:25:48;2.40;;;1.05;;
43807;SDS011;29438;50.664;10.098;2023-01-01T07:28:15;2.95;;;1.15;;
43807;SDS011;29438;50.664;10.098;2023-01-01T07:30:40;2.83;;;1.30;;
43807;SDS011;29438;50.664;10.098;2023-01-01T07:33:09;4.03;;;1.05;;
43807;SDS011;29438;50.664;10.098;2023-01-01T07:35:36;3.88;;;1.05;;
43807;SDS011;29438;50.664;10.098;2023-01-01T07:38:02;4.03;;;1.00;;
43807;SDS011;29438;50.664;10.098;2023-01-01T07:40:27;3.65;;;1.00;;
43807;SDS011;29438;50.664;10.098;2023-01-01T07:42:53;3.63;;;0.98;;
43807;SDS011;29438;50.664;10.098;2023-01-01T07:45:18;2.67;;;1.08;;
43807;SDS011;29438;50.664;10.098;2023-01-01T07:47:45;2.85;;;1.00;;
43807;SDS011;29438;50.664;10.098;2023-01-01T07:50:16;4.95;;;1.40;;
43807;SDS011;29438;50.664;10.098;2023-01-01T07:52:43;4.22;;;1.20;;
43807;SDS011;29438;50.664;10.098;2023-01-01T07:55:12;3.42;;;0.85;;
43807;SDS011;29438;50.664;10.098;2023-01-01T07:57:39;2.58;;;0.90;;
43807;SDS011;29438;50.664;10.098;2023-01-01T08:00:05;4.45;;;1.23;;
43807;SDS011;29438;50.664;10.098;2023-01-01T08:02:31;7.35;;;1.35;;
43807;SDS011;29438;50.664;10.098;2023-01-01T08:04:57;3.63;;;0.95;;
43807;SDS011;29438;50.664;10.098;2023-01-01T08:07:22;2.55;;;0.82;;
43807;SDS011;29438;50.664;10.098;2023-01-01T08:09:48;4.43;;;0.98;;
43807;SDS011;29438;50.664;10.098;2023-01-01T08:12:13;4.70;;;1.05;;
43807;SDS011;29438;50.664;10.098;2023-01-01T08:14:39;4.68;;;1.10;;
43807;SDS011;29438;50.664;10.098;2023-01-01T08:17:04;4.10;;;0.98;;
43807;SDS011;29438;50.664;10.098;2023-01-01T08:19:29;3.45;;;1.10;;
43807;SDS011;29438;50.664;10.098;2023-01-01T08:21:55;4.07;;;1.20;;
43807;SDS011;29438;50.664;10.098;2023-01-01T08:24:20;3.58;;;1.15;;
43807;SDS011;29438;50.664;10.098;2023-01-01T08:26:47;3.22;;;1.27;;
43807;SDS011;29438;50.664;10.098;2023-01-01T08:29:14;6.03;;;0.95;;
43807;SDS011;29438;50.664;10.098;2023-01-01T08:31:39;3.38;;;1.08;;
43807;SDS011;29438;50.664;10.098;2023-01-01T08:34:05;3.25;;;1.02;;
43807;SDS011;29438;50.664;10.098;2023-01-01T08:36:30;3.17;;;0.95;;
43807;SDS011;29438;50.664;10.098;2023-01-01T08:38:56;2.00;;;0.82;;
43807;SDS011;29438;50.664;10.098;2023-01-01T08:41:22;4.53;;;1.10;;
43807;SDS011;29438;50.664;10.098;2023-01-01T08:43:48;2.28;;;1.00;;
43807;SDS011;29438;50.664;10.098;2023-01-01T08:46:13;3.80;;;1.10;;
43807;SDS011;29438;50.664;10.098;2023-01-01T08:48:38;4.43;;;1.10;;
43807;SDS011;29438;50.664;10.098;2023-01-01T08:51:04;2.85;;;1.10;;
43807;SDS011;29438;50.664;10.098;2023-01-01T08:53:30;4.55;;;1.40;;
43807;SDS011;29438;50.664;10.098;2023-01-01T08:56:06;3.13;;;1.40;;
43807;SDS011;29438;50.664;10.098;2023-01-01T08:58:37;3.20;;;1.13;;
43807;SDS011;29438;50.664;10.098;2023-01-01T09:01:04;4.15;;;1.60;;
43807;SDS011;29438;50.664;10.098;2023-01-01T09:03:30;15.07;;;6.30;;
43807;SDS011;29438;50.664;10.098;2023-01-01T09:05:56;5.90;;;2.30;;
43807;SDS011;29438;50.664;10.098;2023-01-01T09:08:22;7.40;;;2.53;;
43807;SDS011;29438;50.664;10.098;2023-01-01T09:10:48;2.97;;;1.10;;
43807;SDS011;29438;50.664;10.098;2023-01-01T09:13:15;5.03;;;2.63;;
43807;SDS011;29438;50.664;10.098;2023-01-01T09:15:42;15.98;;;5.22;;
43807;SDS011;29438;50.664;10.098;2023-01-01T09:18:08;19.08;;;6.53;;
43807;SDS011;29438;50.664;10.098;2023-01-01T09:20:35;3.53;;;1.13;;
43807;SDS011;29438;50.664;10.098;2023-01-01T09:23:01;18.42;;;4.88;;
43807;SDS011;29438;50.664;10.098;2023-01-01T09:25:26;15.15;;;4.30;;
43807;SDS011;29438;50.664;10.098;2023-01-01T09:27:56;5.82;;;1.60;;
43807;SDS011;29438;50.664;10.098;2023-01-01T09:30:22;13.27;;;4.90;;
43807;SDS011;29438;50.664;10.098;2023-01-01T09:32:48;9.10;;;3.40;;
43807;SDS011;29438;50.664;10.098;2023-01-01T09:35:13;4.63;;;1.45;;
43807;SDS011;29438;50.664;10.098;2023-01-01T09:37:39;4.35;;;1.83;;
43807;SDS011;29438;50.664;10.098;2023-01-01T09:40:05;5.95;;;1.90;;
43807;SDS011;29438;50.664;10.098;2023-01-01T09:47:56;4.07;;;1.20;;
43807;SDS011;29438;50.664;10.098;2023-01-01T09:50:32;5.95;;;1.35;;
43807;SDS011;29438;50.664;10.098;2023-01-01T09:53:03;7.07;;;1.15;;
43807;SDS011;29438;50.664;10.098;2023-01-01T09:55:51;3.70;;;1.15;;
43807;SDS011;29438;50.664;10.098;2023-01-01T09:58:24;5.90;;;1.10;;
43807;SDS011;29438;50.664;10.098;2023-01-01T10:00:53;3.40;;;0.90;;
43807;SDS011;29438;50.664;10.098;2023-01-01T10:03:32;2.85;;;0.80;;
43807;SDS011;29438;50.664;10.098;2023-01-01T10:11:55;2.42;;;0.85;;
43807;SDS011;29438;50.664;10.098;2023-01-01T10:14:45;6.43;;;1.10;;
43807;SDS011;29438;50.664;10.098;2023-01-01T10:17:26;5.22;;;1.10;;
43807;SDS011;29438;50.664;10.098;2023-01-01T10:22:43;4.60;;;1.85;;
43807;SDS011;29438;50.664;10.098;2023-01-01T10:25:23;4.80;;;1.40;;
43807;SDS011;29438;50.664;10.098;2023-01-01T10:27:52;10.68;;;3.75;;
43807;SDS011;29438;50.664;10.098;2023-01-01T10:30:26;19.30;;;6.75;;
43807;SDS011;29438;50.664;10.098;2023-01-01T10:32:53;14.00;;;3.38;;
43807;SDS011;29438;50.664;10.098;2023-01-01T10:35:21;12.20;;;4.60;;
43807;SDS011;29438;50.664;10.098;2023-01-01T10:37:55;9.27;;;3.25;;
43807;SDS011;29438;50.664;10.098;2023-01-01T10:40:23;13.13;;;5.38;;
43807;SDS011;29438;50.664;10.098;2023-01-01T10:42:52;9.27;;;3.20;;
43807;SDS011;29438;50.664;10.098;2023-01-01T10:45:39;4.82;;;1.95;;
43807;SDS011;29438;50.664;10.098;2023-01-01T10:48:21;11.77;;;4.20;;
43807;SDS011;29438;50.664;10.098;2023-01-01T10:53:20;21.20;;;6.30;;
43807;SDS011;29438;50.664;10.098;2023-01-01T10:56:13;17.30;;;6.07;;
43807;SDS011;29438;50.664;10.098;2023-01-01T10:58:41;11.43;;;3.88;;
43807;SDS011;29438;50.664;10.098;2023-01-01T11:03:58;12.70;;;5.05;;
43807;SDS011;29438;50.664;10.098;2023-01-01T11:06:33;6.63;;;2.22;;
43807;SDS011;29438;50.664;10.098;2023-01-01T11:09:24;7.53;;;1.70;;
43807;SDS011;29438;50.664;10.098;2023-01-01T11:12:02;3.42;;;0.90;;
43807;SDS011;29438;50.664;10.098;2023-01-01T11:14:37;3.80;;;1.90;;
43807;SDS011;29438;50.664;10.098;2023-01-01T11:17:07;5.97;;;1.30;;
43807;SDS011;29438;50.664;10.098;2023-01-01T11:19:37;4.20;;;1.33;;
43807;SDS011;29438;50.664;10.098;2023-01-01T11:22:05;2.72;;;1.20;;
43807;SDS011;29438;50.664;10.098;2023-01-01T11:24:34;3.95;;;0.90;;
43807;SDS011;29438;50.664;10.098;2023-01-01T11:29:46;5.20;;;1.00;;
43807;SDS011;29438;50.664;10.098;2023-01-01T11:32:18;3.28;;;1.35;;
43807;SDS011;29438;50.664;10.098;2023-01-01T11:34:58;4.03;;;0.95;;
43807;SDS011;29438;50.664;10.098;2023-01-01T11:37:36;5.18;;;1.23;;
43807;SDS011;29438;50.664;10.098;2023-01-01T11:40:03;3.67;;;1.05;;
43807;SDS011;29438;50.664;10.098;2023-01-01T11:42:41;4.65;;;1.10;;
43807;SDS011;29438;50.664;10.098;2023-01-01T11:45:18;3.95;;;0.95;;
43807;SDS011;29438;50.664;10.098;2023-01-01T11:47:50;4.97;;;1.08;;
43807;SDS011;29438;50.664;10.098;2023-01-01T11:50:22;4.38;;;1.17;;
43807;SDS011;29438;50.664;10.098;2023-01-01T11:56:01;5.15;;;1.00;;
43807;SDS011;29438;50.664;10.098;2023-01-01T11:58:48;3.42;;;1.50;;
43807;SDS011;29438;50.664;10.098;2023-01-01T12:01:25;5.90;;;2.17;;
43807;SDS011;29438;50.664;10.098;2023-01-01T12:04:01;8.27;;;2.15;;
43807;SDS011;29438;50.664;10.098;2023-01-01T12:12:41;5.70;;;1.63;;
43807;SDS011;29438;50.664;10.098;2023-01-01T12:15:17;8.98;;;3.65;;
43807;SDS011;29438;50.664;10.098;2023-01-01T12:23:39;5.85;;;2.20;;
43807;SDS011;29438;50.664;10.098;2023-01-01T12:26:14;8.82;;;2.50;;
43807;SDS011;29438;50.664;10.098;2023-01-01T12:31:40;4.70;;;0.70;;
43807;SDS011;29438;50.664;10.098;2023-01-01T12:42:59;3.72;;;1.00;;
43807;SDS011;29438;50.664;10.098;2023-01-01T12:56:02;4.82;;;1.50;;
43807;SDS011;29438;50.664;10.098;2023-01-01T12:58:33;3.30;;;1.05;;
43807;SDS011;29438;50.664;10.098;2023-01-01T13:01:11;7.65;;;1.48;;
43807;SDS011;29438;50.664;10.098;2023-01-01T13:03:52;6.47;;;1.50;;
43807;SDS011;29438;50.664;10.098;2023-01-01T13:06:35;5.47;;;1.40;;
43807;SDS011;29438;50.664;10.098;2023-01-01T13:09:03;7.13;;;1.83;;
43807;SDS011;29438;50.664;10.098;2023-01-01T13:11:44;4.70;;;1.30;;
43807;SDS011;29438;50.664;10.098;2023-01-01T13:14:14;6.80;;;2.10;;
43807;SDS011;29438;50.664;10.098;2023-01-01T13:16:40;6.85;;;1.63;;
43807;SDS011;29438;50.664;10.098;2023-01-01T13:19:21;11.52;;;2.75;;
43807;SDS011;29438;50.664;10.098;2023-01-01T13:21:48;10.32;;;2.85;;
43807;SDS011;29438;50.664;10.098;2023-01-01T13:24:23;5.50;;;1.48;;
43807;SDS011;29438;50.664;10.098;2023-01-01T13:26:51;5.28;;;1.40;;
43807;SDS011;29438;50.664;10.098;2023-01-01T13:45:23;10.77;;;2.70;;
43807;SDS011;29438;50.664;10.098;2023-01-01T13:50:32;7.82;;;1.70;;
43807;SDS011;29438;50.664;10.098;2023-01-01T13:53:13;9.45;;;1.80;;
43807;SDS011;29438;50.664;10.098;2023-01-01T14:04:43;4.32;;;1.27;;
43807;SDS011;29438;50.664;10.098;2023-01-01T14:09:44;6.28;;;1.23;;
43807;SDS011;29438;50.664;10.098;2023-01-01T14:12:16;5.63;;;1.30;;
43807;SDS011;29438;50.664;10.098;2023-01-01T14:14:43;5.55;;;1.40;;
43807;SDS011;29438;50.664;10.098;2023-01-01T14:17:10;6.78;;;1.08;;
43807;SDS011;29438;50.664;10.098;2023-01-01T14:19:38;4.00;;;0.88;;
43807;SDS011;29438;50.664;10.098;2023-01-01T14:22:06;3.50;;;1.30;;
43807;SDS011;29438;50.664;10.098;2023-01-01T14:24:33;6.22;;;1.13;;
43807;SDS011;29438;50.664;10.098;2023-01-01T14:27:04;4.18;;;1.10;;
43807;SDS011;29438;50.664;10.098;2023-01-01T14:29:30;5.43;;;0.95;;
43807;SDS011;29438;50.664;10.098;2023-01-01T14:31:57;7.43;;;1.20;;
43807;SDS011;29438;50.664;10.098;2023-01-01T14:34:25;6.72;;;1.10;;
43807;SDS011;29438;50.664;10.098;2023-01-01T14:36:59;5.47;;;1.10;;
43807;SDS011;29438;50.664;10.098;2023-01-01T14:41:59;4.70;;;1.00;;
43807;SDS011;29438;50.664;10.098;2023-01-01T14:44:32;7.28;;;1.17;;
43807;SDS011;29438;50.664;10.098;2023-01-01T14:47:00;5.43;;;1.45;;
43807;SDS011;29438;50.664;10.098;2023-01-01T14:49:36;6.80;;;1.58;;
43807;SDS011;29438;50.664;10.098;2023-01-01T14:52:06;5.22;;;1.10;;
43807;SDS011;29438;50.664;10.098;2023-01-01T14:54:40;3.72;;;1.02;;
43807;SDS011;29438;50.664;10.098;2023-01-01T14:57:11;6.90;;;1.50;;
43807;SDS011;29438;50.664;10.098;2023-01-01T14:59:46;9.57;;;1.60;;
43807;SDS011;29438;50.664;10.098;2023-01-01T15:02:15;5.53;;;1.88;;
43807;SDS011;29438;50.664;10.098;2023-01-01T15:05:14;6.30;;;1.60;;
43807;SDS011;29438;50.664;10.098;2023-01-01T15:07:54;7.45;;;1.90;;
43807;SDS011;29438;50.664;10.098;2023-01-01T15:10:25;6.30;;;1.90;;
43807;SDS011;29438;50.664;10.098;2023-01-01T15:12:52;7.43;;;1.55;;
43807;SDS011;29438;50.664;10.098;2023-01-01T15:18:04;6.65;;;2.25;;
43807;SDS011;29438;50.664;10.098;2023-01-01T15:20:30;8.15;;;2.75;;
43807;SDS011;29438;50.664;10.098;2023-01-01T15:22:59;7.15;;;2.08;;
43807;SDS011;29438;50.664;10.098;2023-01-01T15:25:25;7.97;;;2.53;;
43807;SDS011;29438;50.664;10.098;2023-01-01T15:27:51;6.93;;;2.33;;
43807;SDS011;29438;50.664;10.098;2023-01-01T15:30:24;9.40;;;2.22;;
43807;SDS011;29438;50.664;10.098;2023-01-01T15:32:51;7.45;;;1.85;;
43807;SDS011;29438;50.664;10.098;2023-01-01T15:35:22;8.98;;;2.65;;
43807;SDS011;29438;50.664;10.098;2023-01-01T15:37:58;8.02;;;1.90;;
43807;SDS011;29438;50.664;10.098;2023-01-01T15:40:36;3.85;;;1.20;;
43807;SDS011;29438;50.664;10.098;2023-01-01T15:45:30;8.35;;;2.20;;
43807;SDS011;29438;50.664;10.098;2023-01-01T15:50:34;6.15;;;2.10;;
43807;SDS011;29438;50.664;10.098;2023-01-01T15:53:14;7.03;;;1.95;;
43807;SDS011;29438;50.664;10.098;2023-01-01T15:55:44;7.65;;;1.67;;
43807;SDS011;29438;50.664;10.098;2023-01-01T15:58:17;6.22;;;1.80;;
43807;SDS011;29438;50.664;10.098;2023-01-01T16:00:52;9.15;;;1.98;;
43807;SDS011;29438;50.664;10.098;2023-01-01T16:03:20;8.32;;;1.73;;
43807;SDS011;29438;50.664;10.098;2023-01-01T16:05:49;6.53;;;2.20;;
43807;SDS011;29438;50.664;10.098;2023-01-01T16:08:15;7.45;;;1.67;;
43807;SDS011;29438;50.664;10.098;2023-01-01T16:10:41;7.75;;;1.50;;
43807;SDS011;29438;50.664;10.098;2023-01-01T16:13:07;6.38;;;1.25;;
43807;SDS011;29438;50.664;10.098;2023-01-01T16:15:33;6.07;;;1.65;;
43807;SDS011;29438;50.664;10.098;2023-01-01T16:17:59;8.38;;;1.65;;
43807;SDS011;29438;50.664;10.098;2023-01-01T16:20:25;6.00;;;1.95;;
43807;SDS011;29438;50.664;10.098;2023-01-01T16:22:51;8.45;;;2.28;;
43807;SDS011;29438;50.664;10.098;2023-01-01T16:25:18;8.00;;;2.00;;
43807;SDS011;29438;50.664;10.098;2023-01-01T16:27:45;5.68;;;1.42;;
43807;SDS011;29438;50.664;10.098;2023-01-01T16:30:11;5.57;;;1.98;;
43807;SDS011;29438;50.664;10.098;2023-01-01T16:32:38;7.55;;;2.50;;
43807;SDS011;29438;50.664;10.098;2023-01-01T16:35:04;7.68;;;2.50;;
43807;SDS011;29438;50.664;10.098;2023-01-01T16:37:31;5.07;;;1.55;;
43807;SDS011;29438;50.664;10.098;2023-01-01T16:39:57;5.57;;;1.52;;
43807;SDS011;29438;50.664;10.098;2023-01-01T16:42:23;5.45;;;1.55;;
43807;SDS011;29438;50.664;10.098;2023-01-01T16:44:49;5.97;;;1.50;;